Time;durP1;ratioP1;P1;durP2;ratioP2;P2;SDS_P1;SDS_P2;PMS_P1;PMS_P2;Temp;Humidity;BMP_temperature;BMP_pressure;BME280_temperature;BME280_humidity;BME280_pressure;Samples;Min_cycle;Max_cycle;Signal;HPM_P1;HPM_P2
2023/03/04 00:01:07;;;;;;;;;;;;;;;20.58;37.27;100945.01;103657;1309;61705;-84
2023/03/04 00:03:32;;;;;;;;;;;;;;;20.59;37.27;100942.83;103621;1309;61313;-84
2023/03/04 00:05:58;;;;;;;;;;;;;;;20.58;37.28;100944.42;103625;1308;61365;-83
2023/03/04 00:08:24;;;;;;;;;;;;;;;20.59;37.12;100942.43;103610;1314;61375;-84
2023/03/04 00:10:49;;;;;;;;;;;;;;;20.58;37.33;100942.27;103653;1309;61291;-83
2023/03/04 00:13:15;;;;;;;;;;;;;;;20.59;37.34;100940.13;103851;1308;61874;-84
2023/03/04 00:15:41;;;;;;;;;;;;;;;20.59;37.23;100938.50;103736;1308;61832;-83
2023/03/04 00:18:08;;;;;;;;;;;;;;;20.59;37.23;100932.77;103832;1312;61259;-83
2023/03/04 00:20:34;;;;;;;;;;;;;;;20.59;37.24;100930.59;103854;1308;61413;-84
2023/03/04 00:22:59;;;;;;;;;;;;;;;20.59;37.24;100927.03;103671;1308;61276;-83
2023/03/04 00:25:25;;;;;;;;;;;;;;;20.59;37.29;100921.52;103730;1308;61374;-83
2023/03/04 00:27:50;;;;;;;;;;;;;;;20.59;37.18;100918.27;103879;1313;61318;-84
2023/03/04 00:30:16;;;;;;;;;;;;;;;20.59;37.19;100915.93;103740;1308;73674;-83
2023/03/04 00:32:41;;;;;;;;;;;;;;;20.60;37.22;100916.27;103635;1309;61272;-84
2023/03/04 00:35:07;;;;;;;;;;;;;;;20.59;37.22;100917.88;103617;1314;61351;-84
2023/03/04 00:37:33;;;;;;;;;;;;;;;20.60;37.20;100921.44;103377;1312;61593;-84
2023/03/04 00:39:59;;;;;;;;;;;;;;;20.60;37.34;100925.91;103572;1312;61749;-83
2023/03/04 00:42:25;;;;;;;;;;;;;;;20.60;37.06;100927.34;103438;1312;61261;-84
2023/03/04 00:44:51;;;;;;;;;;;;;;;20.60;37.37;100920.70;103538;1312;61438;-84
2023/03/04 00:47:16;;;;;;;;;;;;;;;20.60;37.20;100923.91;103477;1312;61332;-84
2023/03/04 00:49:42;;;;;;;;;;;;;;;20.61;37.24;100925.14;103436;1317;61269;-84
2023/03/04 00:52:09;;;;;;;;;;;;;;;20.60;37.25;100922.48;103569;1311;61315;-84
2023/03/04 00:54:34;;;;;;;;;;;;;;;20.60;37.13;100927.32;103457;1314;61358;-83
2023/03/04 00:57:00;;;;;;;;;;;;;;;20.61;37.28;100925.33;103622;1312;61321;-84
2023/03/04 00:59:26;;;;;;;;;;;;;;;20.60;37.34;100923.38;103439;1311;61431;-83
2023/03/04 01:01:51;;;;;;;;;;;;;;;20.61;37.16;100929.61;103457;1311;61278;-83
2023/03/04 01:04:17;;;;;;;;;;;;;;;20.61;37.27;100932.46;103366;1312;72762;-84
2023/03/04 01:06:42;;;;;;;;;;;;;;;20.62;37.22;100934.22;103568;1312;61288;-84
2023/03/04 01:09:08;;;;;;;;;;;;;;;20.62;37.28;100932.42;103708;1309;61465;-84
2023/03/04 01:11:34;;;;;;;;;;;;;;;20.62;37.28;100936.00;103623;1308;61384;-85
2023/03/04 01:14:02;;;;;;;;;;;;;;;20.62;37.20;100935.08;103631;1314;61261;-84
2023/03/04 01:16:28;;;;;;;;;;;;;;;20.62;37.27;100935.98;103581;1308;61310;-84
2023/03/04 01:18:53;;;;;;;;;;;;;;;20.62;37.16;100930.79;103656;1311;61275;-84
2023/03/04 01:21:19;;;;;;;;;;;;;;;20.62;37.28;100926.89;103661;1308;61316;-84
2023/03/04 01:23:44;;;;;;;;;;;;;;;20.63;37.24;100925.94;103922;1313;61320;-83
2023/03/04 01:26:10;;;;;;;;;;;;;;;20.63;37.24;100925.02;103639;1309;61367;-83
2023/03/04 01:28:36;;;;;;;;;;;;;;;20.62;37.12;100932.59;103848;1309;61302;-84
2023/03/04 01:31:02;;;;;;;;;;;;;;;20.62;37.30;100930.98;103705;1308;61758;-84
2023/03/04 01:33:28;;;;;;;;;;;;;;;20.62;37.23;100932.06;103614;1308;61352;-84
2023/03/04 01:35:53;;;;;;;;;;;;;;;20.63;37.40;100936.84;103674;1309;61937;-83
2023/03/04 01:38:19;;;;;;;;;;;;;;;20.63;37.20;100937.73;103821;1309;61253;-83
2023/03/04 01:40:45;;;;;;;;;;;;;;;20.63;37.29;100939.35;103701;1308;61479;-83
2023/03/04 01:43:14;;;;;;;;;;;;;;;20.63;37.24;100938.62;103885;1309;61393;-84
2023/03/04 01:45:39;;;;;;;;;;;;;;;20.63;37.26;100936.30;103853;1309;61291;-84
2023/03/04 01:48:05;;;;;;;;;;;;;;;20.63;37.32;100931.45;103666;1308;61298;-83
2023/03/04 01:50:32;;;;;;;;;;;;;;;20.63;37.36;100929.32;103652;1308;61387;-83
2023/03/04 01:52:57;;;;;;;;;;;;;;;20.63;37.20;100926.11;103745;1308;61294;-83
2023/03/04 01:55:25;;;;;;;;;;;;;;;20.63;37.32;100923.23;103679;1308;61282;-83
2023/03/04 01:57:51;;;;;;;;;;;;;;;20.63;37.39;100919.48;103393;1316;61582;-84
2023/03/04 02:00:36;;;;;;;;;;;;;;;20.63;37.21;100915.17;103618;1308;61297;-82
2023/03/04 02:03:07;;;;;;;;;;;;;;;20.64;37.33;100917.09;103863;1308;61077;-83
2023/03/04 02:05:33;;;;;;;;;;;;;;;20.63;37.43;100922.30;103824;1308;61127;-83
2023/03/04 02:07:59;;;;;;;;;;;;;;;20.64;37.36;100927.45;103860;1310;61305;-84
2023/03/04 02:10:24;;;;;;;;;;;;;;;20.64;37.28;100935.83;103636;1314;61337;-84
2023/03/04 02:12:50;;;;;;;;;;;;;;;20.64;37.26;100941.78;103684;1309;59425;-84
2023/03/04 02:15:16;;;;;;;;;;;;;;;20.64;37.23;100951.40;103691;1309;61483;-84
2023/03/04 02:17:41;;;;;;;;;;;;;;;20.64;37.26;100954.95;103729;1309;61435;-83
2023/03/04 02:20:13;;;;;;;;;;;;;;;20.64;37.15;100948.55;103553;1308;72412;-83
2023/03/04 02:22:43;;;;;;;;;;;;;;;20.64;37.31;100948.56;103850;1308;75514;-84
2023/03/04 02:25:12;;;;;;;;;;;;;;;20.64;37.26;100954.59;103845;1308;61144;-83
2023/03/04 02:27:38;;;;;;;;;;;;;;;20.63;37.38;100952.87;103822;1309;61349;-82
2023/03/04 02:30:03;;;;;;;;;;;;;;;20.64;37.20;100953.22;103573;1311;61399;-84
2023/03/04 02:32:29;;;;;;;;;;;;;;;20.64;37.40;100962.70;103861;1308;60013;-83
2023/03/04 02:34:54;;;;;;;;;;;;;;;20.64;37.28;100963.36;103588;1308;61428;-83
2023/03/04 02:37:23;;;;;;;;;;;;;;;20.64;37.17;100961.08;103604;1312;61374;-83
2023/03/04 02:39:49;;;;;;;;;;;;;;;20.64;37.24;100958.39;103812;1309;61335;-84
2023/03/04 02:42:14;;;;;;;;;;;;;;;20.64;37.26;100957.46;103672;1308;61335;-83
2023/03/04 02:44:42;;;;;;;;;;;;;;;20.64;37.29;100957.30;103653;1308;61306;-84
2023/03/04 02:47:10;;;;;;;;;;;;;;;20.64;37.33;100956.77;103873;1309;61386;-83
2023/03/04 02:49:36;;;;;;;;;;;;;;;20.64;37.34;100954.41;103850;1308;61275;-82
2023/03/04 02:52:03;;;;;;;;;;;;;;;20.64;37.36;100949.24;103822;1311;61333;-83
2023/03/04 02:54:28;;;;;;;;;;;;;;;20.64;37.24;100949.95;103872;1308;61345;-83
2023/03/04 02:56:55;;;;;;;;;;;;;;;20.65;37.35;100948.13;103635;1311;61268;-83
2023/03/04 02:59:20;;;;;;;;;;;;;;;20.65;37.35;100949.16;103641;1308;61930;-83
2023/03/04 03:01:47;;;;;;;;;;;;;;;20.65;37.35;100945.98;103648;1308;61206;-83
2023/03/04 03:04:12;;;;;;;;;;;;;;;20.65;37.39;100946.52;103881;1308;61288;-83
2023/03/04 03:06:38;;;;;;;;;;;;;;;20.65;37.37;100944.19;103613;1308;61379;-84
2023/03/04 03:09:05;;;;;;;;;;;;;;;20.65;37.46;100938.46;103628;1308;61404;-83
2023/03/04 03:11:30;;;;;;;;;;;;;;;20.66;37.34;100933.78;103697;1308;61396;-84
2023/03/04 03:13:56;;;;;;;;;;;;;;;20.65;37.35;100929.48;103800;1308;74619;-85
2023/03/04 03:16:22;;;;;;;;;;;;;;;20.65;37.35;100930.58;103909;1308;61345;-84
2023/03/04 03:18:47;;;;;;;;;;;;;;;20.66;37.47;100939.69;103473;1309;61271;-84
2023/03/04 03:21:13;;;;;;;;;;;;;;;20.66;37.46;100939.86;103612;1308;61334;-83
2023/03/04 03:23:38;;;;;;;;;;;;;;;20.66;37.41;100938.79;103476;1308;61362;-84
2023/03/04 03:26:04;;;;;;;;;;;;;;;20.66;37.35;100937.52;103843;1308;75465;-83
2023/03/04 03:28:30;;;;;;;;;;;;;;;20.66;37.33;100936.08;103928;1308;61425;-83
2023/03/04 03:30:58;;;;;;;;;;;;;;;20.66;37.49;100934.64;103897;1308;61977;-83
2023/03/04 03:33:24;;;;;;;;;;;;;;;20.66;37.36;100936.05;103586;1308;73512;-83
2023/03/04 03:35:49;;;;;;;;;;;;;;;20.66;37.31;100931.80;103570;1308;61389;-83
2023/03/04 03:38:18;;;;;;;;;;;;;;;20.66;37.40;100931.27;103680;1308;61160;-83
2023/03/04 03:40:43;;;;;;;;;;;;;;;20.66;37.51;100929.97;103610;1308;61151;-84
2023/03/04 03:43:09;;;;;;;;;;;;;;;20.66;37.36;100929.05;103874;1308;61383;-83
2023/03/04 03:45:35;;;;;;;;;;;;;;;20.66;37.44;100926.60;103686;1309;61310;-83
2023/03/04 03:48:00;;;;;;;;;;;;;;;20.67;37.33;100924.60;103633;1308;61311;-84
2023/03/04 03:50:27;;;;;;;;;;;;;;;20.67;37.25;100925.28;103669;1308;61157;-83
2023/03/04 03:52:53;;;;;;;;;;;;;;;20.67;37.21;100928.86;103584;1314;61515;-83
2023/03/04 03:55:22;;;;;;;;;;;;;;;20.66;37.33;100930.50;103741;1308;61250;-84
2023/03/04 03:57:47;;;;;;;;;;;;;;;20.67;37.48;100931.35;103729;1308;61400;-84
2023/03/04 04:00:16;;;;;;;;;;;;;;;20.67;37.46;100928.15;103831;1308;61224;-83
2023/03/04 04:02:42;;;;;;;;;;;;;;;20.67;37.22;100925.98;103791;1309;61431;-83
2023/03/04 04:05:08;;;;;;;;;;;;;;;20.67;37.44;100920.98;103839;1309;61343;-84
2023/03/04 04:07:33;;;;;;;;;;;;;;;20.67;37.40;100919.73;103671;1308;61429;-84
2023/03/04 04:09:59;;;;;;;;;;;;;;;20.67;37.37;100920.98;103623;1308;61272;-83
2023/03/04 04:12:24;;;;;;;;;;;;;;;20.67;37.40;100919.55;103636;1308;61346;-83
2023/03/04 04:14:51;;;;;;;;;;;;;;;20.67;37.47;100922.75;103873;1310;72352;-84
2023/03/04 04:17:16;;;;;;;;;;;;;;;20.67;37.34;100926.52;103873;1308;59301;-84
2023/03/04 04:19:42;;;;;;;;;;;;;;;20.68;37.38;100932.02;103689;1309;61205;-84
2023/03/04 04:22:12;;;;;;;;;;;;;;;20.67;37.56;100934.19;103700;1308;61300;-84
2023/03/04 04:24:38;;;;;;;;;;;;;;;20.67;37.40;100938.14;103723;1313;72450;-84
2023/03/04 04:27:03;;;;;;;;;;;;;;;20.68;37.50;100938.45;103722;1308;61448;-84
2023/03/04 04:29:29;;;;;;;;;;;;;;;20.68;37.40;100936.85;103726;1309;61332;-82
2023/03/04 04:31:54;;;;;;;;;;;;;;;20.67;37.44;100935.80;103880;1308;61298;-83
2023/03/04 04:34:20;;;;;;;;;;;;;;;20.68;37.45;100935.59;103752;1308;61432;-83
2023/03/04 04:36:47;;;;;;;;;;;;;;;20.68;37.50;100935.94;103636;1308;73771;-83
2023/03/04 04:39:15;;;;;;;;;;;;;;;20.68;37.41;100936.46;103661;1308;74775;-83
2023/03/04 04:41:44;;;;;;;;;;;;;;;20.68;37.43;100932.54;103617;1308;61326;-83
2023/03/04 04:44:10;;;;;;;;;;;;;;;20.69;37.45;100942.17;103657;1308;61278;-83
2023/03/04 04:46:37;;;;;;;;;;;;;;;20.68;37.39;100943.44;103834;1308;61227;-83
2023/03/04 04:49:03;;;;;;;;;;;;;;;20.68;37.41;100945.05;103701;1308;61298;-83
2023/03/04 04:51:28;;;;;;;;;;;;;;;20.68;37.46;100948.09;103647;1309;61336;-82
2023/03/04 04:53:54;;;;;;;;;;;;;;;20.69;37.40;100945.72;103691;1308;61444;-84
2023/03/04 04:56:21;;;;;;;;;;;;;;;20.69;37.42;100946.64;103758;1308;61428;-83
2023/03/04 04:58:46;;;;;;;;;;;;;;;20.69;37.38;100945.38;103611;1308;61777;-83
2023/03/04 05:01:13;;;;;;;;;;;;;;;20.69;37.43;100949.13;103601;1308;61355;-84
2023/03/04 05:03:38;;;;;;;;;;;;;;;20.69;37.32;100950.04;103678;1309;70333;-84
2023/03/04 05:06:04;;;;;;;;;;;;;;;20.69;37.49;100956.13;103500;1308;61228;-83
2023/03/04 05:08:30;;;;;;;;;;;;;;;20.69;37.51;100959.85;103579;1311;73315;-83
2023/03/04 05:10:57;;;;;;;;;;;;;;;20.69;37.51;100958.77;103642;1308;61387;-83
2023/03/04 05:13:22;;;;;;;;;;;;;;;20.70;37.44;100962.52;103450;1308;61866;-83
2023/03/04 05:15:50;;;;;;;;;;;;;;;20.70;37.37;100968.22;103758;1309;61490;-84
2023/03/04 05:18:15;;;;;;;;;;;;;;;20.69;37.41;100969.48;103613;1308;61301;-84
2023/03/04 05:20:41;;;;;;;;;;;;;;;20.70;37.42;100971.98;103661;1308;61433;-84
2023/03/04 05:23:06;;;;;;;;;;;;;;;20.70;37.38;100972.48;103664;1309;61304;-82
2023/03/04 05:25:32;;;;;;;;;;;;;;;20.70;37.36;100972.66;103755;1308;61384;-82
2023/03/04 05:27:58;;;;;;;;;;;;;;;20.70;37.35;100976.23;103743;1308;61323;-83
2023/03/04 05:30:23;;;;;;;;;;;;;;;20.71;37.40;100983.54;103624;1311;61387;-83
2023/03/04 05:32:49;;;;;;;;;;;;;;;20.70;37.34;100986.05;103603;1308;61711;-84
2023/03/04 05:35:14;;;;;;;;;;;;;;;20.71;37.46;100986.02;103698;1308;61382;-84
2023/03/04 05:37:42;;;;;;;;;;;;;;;20.71;37.33;100986.70;103631;1308;61303;-83
2023/03/04 05:40:08;;;;;;;;;;;;;;;20.72;37.52;100984.17;103850;1308;61292;-83
2023/03/04 05:42:35;;;;;;;;;;;;;;;20.72;37.43;100984.53;103675;1308;61419;-84
2023/03/04 05:45:00;;;;;;;;;;;;;;;20.72;37.28;100982.39;103595;1308;60439;-83
2023/03/04 05:47:26;;;;;;;;;;;;;;;20.72;37.33;100984.89;103662;1309;61265;-83
2023/03/04 05:49:53;;;;;;;;;;;;;;;20.72;37.37;100986.30;103851;1309;61305;-83
2023/03/04 05:52:18;;;;;;;;;;;;;;;20.72;37.33;100982.36;103652;1308;72630;-83
2023/03/04 05:54:44;;;;;;;;;;;;;;;20.72;37.29;100984.51;103852;1309;61294;-84
2023/03/04 05:57:11;;;;;;;;;;;;;;;20.73;37.29;100984.11;103868;1308;61228;-84
2023/03/04 05:59:36;;;;;;;;;;;;;;;20.74;37.32;100986.56;103739;1308;61349;-82
2023/03/04 06:02:02;;;;;;;;;;;;;;;20.73;37.32;100991.58;103618;1308;61149;-84
2023/03/04 06:04:28;;;;;;;;;;;;;;;20.74;37.28;100992.98;103878;1308;61279;-83
2023/03/04 06:06:54;;;;;;;;;;;;;;;20.74;37.16;100996.71;103666;1309;61454;-83
2023/03/04 06:09:20;;;;;;;;;;;;;;;20.74;37.27;100995.30;103607;1308;61190;-83
2023/03/04 06:11:46;;;;;;;;;;;;;;;20.75;37.31;100998.66;103413;1311;61253;-84
2023/03/04 06:14:11;;;;;;;;;;;;;;;20.75;37.26;101000.80;103852;1308;62005;-83
2023/03/04 06:16:36;;;;;;;;;;;;;;;20.75;37.25;101002.75;103630;1308;61323;-83
2023/03/04 06:19:02;;;;;;;;;;;;;;;20.75;37.25;101000.63;103881;1308;61243;-84
2023/03/04 06:21:28;;;;;;;;;;;;;;;20.75;37.14;100999.52;103649;1308;61314;-83
2023/03/04 06:23:54;;;;;;;;;;;;;;;20.75;37.22;101000.79;103460;1309;61266;-83
2023/03/04 06:26:19;;;;;;;;;;;;;;;20.76;37.25;100999.30;103719;1309;61263;-83
2023/03/04 06:28:45;;;;;;;;;;;;;;;20.75;37.16;100993.63;103606;1309;61384;-83
2023/03/04 06:31:10;;;;;;;;;;;;;;;20.75;37.14;100994.46;103873;1308;61354;-83
2023/03/04 06:33:36;;;;;;;;;;;;;;;20.75;37.22;100996.27;103659;1308;61276;-83
2023/03/04 06:36:01;;;;;;;;;;;;;;;20.75;37.23;100996.64;103967;1308;61399;-84
2023/03/04 06:38:27;;;;;;;;;;;;;;;20.76;37.30;101001.42;103943;1308;61419;-84
2023/03/04 06:40:53;;;;;;;;;;;;;;;20.76;37.22;101003.92;103678;1311;61502;-83
2023/03/04 06:43:18;;;;;;;;;;;;;;;20.76;37.14;101007.85;103886;1309;61262;-84
2023/03/04 06:45:44;;;;;;;;;;;;;;;20.76;37.21;101010.16;103688;1308;61377;-82
2023/03/04 06:48:10;;;;;;;;;;;;;;;20.76;37.24;101010.52;103850;1308;61290;-85
2023/03/04 06:50:35;;;;;;;;;;;;;;;20.77;36.97;101011.38;103612;1308;73645;-83
2023/03/04 06:53:02;;;;;;;;;;;;;;;20.77;36.95;101009.21;103714;1309;61397;-84
2023/03/04 06:55:28;;;;;;;;;;;;;;;20.77;37.20;101006.73;103861;1308;61142;-84
2023/03/04 06:57:55;;;;;;;;;;;;;;;20.77;37.11;101005.98;103695;1308;61256;-83
2023/03/04 07:00:22;;;;;;;;;;;;;;;20.78;37.06;101005.08;103664;1309;61784;-83
2023/03/04 07:02:48;;;;;;;;;;;;;;;20.77;37.10;101005.98;102990;1309;940957;-83
2023/03/04 07:05:14;;;;;;;;;;;;;;;20.77;37.01;100997.77;103846;1308;61455;-83
2023/03/04 07:07:40;;;;;;;;;;;;;;;20.77;37.11;100998.65;103539;1308;61339;-83
2023/03/04 07:10:08;;;;;;;;;;;;;;;20.78;37.09;100998.44;103623;1308;61333;-83
2023/03/04 07:12:34;;;;;;;;;;;;;;;20.79;37.12;100994.83;103626;1309;74371;-83
2023/03/04 07:15:00;;;;;;;;;;;;;;;20.78;37.02;100989.32;103664;1308;61442;-84
2023/03/04 07:17:26;;;;;;;;;;;;;;;20.79;37.02;100988.20;103824;1308;61463;-83
2023/03/04 07:19:51;;;;;;;;;;;;;;;20.78;36.98;100989.84;103818;1308;61415;-83
2023/03/04 07:22:17;;;;;;;;;;;;;;;20.78;37.00;100988.78;103911;1309;61282;-83
2023/03/04 07:24:42;;;;;;;;;;;;;;;20.78;37.01;100985.39;103709;1308;61282;-83
2023/03/04 07:27:08;;;;;;;;;;;;;;;20.78;36.93;100990.03;103867;1308;61275;-84
2023/03/04 07:29:33;;;;;;;;;;;;;;;20.79;37.02;100988.38;103625;1308;61482;-83
2023/03/04 07:32:23;;;;;;;;;;;;;;;20.79;36.95;100986.79;103678;1308;61308;-84
2023/03/04 07:34:49;;;;;;;;;;;;;;;20.79;37.02;100983.38;102886;1317;75467;-84
2023/03/04 07:37:14;;;;;;;;;;;;;;;20.79;36.95;100984.79;102852;1317;61406;-82
2023/03/04 07:39:40;;;;;;;;;;;;;;;20.79;36.95;100984.42;102941;1317;61302;-83
2023/03/04 07:42:06;;;;;;;;;;;;;;;20.80;37.00;100983.11;102890;1317;61209;-84
2023/03/04 07:44:31;;;;;;;;;;;;;;;20.80;36.98;100975.78;102872;1317;61349;-85
2023/03/04 07:46:57;;;;;;;;;;;;;;;20.80;36.88;100968.24;102942;1317;61246;-84
2023/03/04 07:49:22;;;;;;;;;;;;;;;20.80;36.89;100961.27;102887;1318;61423;-84
2023/03/04 07:51:48;;;;;;;;;;;;;;;20.81;36.87;100961.60;102929;1317;61298;-84
2023/03/04 07:54:14;;;;;;;;;;;;;;;20.81;36.91;100956.05;102875;1317;61532;-84
2023/03/04 07:56:39;;;;;;;;;;;;;;;20.81;36.85;100951.59;102918;1316;61333;-84
2023/03/04 07:59:05;;;;;;;;;;;;;;;20.81;36.95;100950.66;102927;1316;61319;-84
2023/03/04 08:01:34;;;;;;;;;;;;;;;20.81;36.85;100950.11;102931;1317;61327;-84
2023/03/04 08:04:00;;;;;;;;;;;;;;;20.82;36.90;100950.95;102876;1317;61439;-83
2023/03/04 08:06:26;;;;;;;;;;;;;;;20.82;36.89;100949.33;102921;1318;61336;-83
2023/03/04 08:08:55;;;;;;;;;;;;;;;20.83;36.89;100948.93;102893;1317;61291;-83
2023/03/04 08:11:21;;;;;;;;;;;;;;;20.83;36.84;100945.16;102987;1308;61286;-83
2023/03/04 08:13:46;;;;;;;;;;;;;;;20.82;36.73;100942.91;103673;1308;61429;-83
2023/03/04 08:16:16;;;;;;;;;;;;;;;20.83;36.95;100939.08;103585;1308;61854;-83
2023/03/04 08:18:46;;;;;;;;;;;;;;;20.83;36.77;100939.98;103575;1308;75599;-83
2023/03/04 08:21:15;;;;;;;;;;;;;;;20.83;36.76;100935.52;103686;1308;61406;-83
2023/03/04 08:23:41;;;;;;;;;;;;;;;20.83;36.86;100929.42;103660;1308;61234;-83
2023/03/04 08:26:14;;;;;;;;;;;;;;;20.84;36.87;100926.48;103653;1308;61221;-84
2023/03/04 08:28:40;;;;;;;;;;;;;;;20.84;36.83;100925.27;103676;1311;74360;-83
2023/03/04 08:31:05;;;;;;;;;;;;;;;20.84;36.82;100921.14;103632;1308;61330;-84
2023/03/04 08:33:32;;;;;;;;;;;;;;;20.84;36.90;100920.60;103753;1311;61451;-83
2023/03/04 08:35:57;;;;;;;;;;;;;;;20.83;37.06;100917.73;103694;1308;61353;-83
2023/03/04 08:38:23;;;;;;;;;;;;;;;20.84;36.94;100917.90;103757;1308;61414;-83
2023/03/04 08:40:52;;;;;;;;;;;;;;;20.84;37.04;100920.77;103677;1309;61266;-84
2023/03/04 08:43:18;;;;;;;;;;;;;;;20.84;36.95;100919.29;103599;1308;61343;-83
2023/03/04 08:45:43;;;;;;;;;;;;;;;20.84;36.91;100921.81;103841;1308;61362;-84
2023/03/04 08:48:10;;;;;;;;;;;;;;;20.84;36.88;100924.15;103645;1308;61339;-84
2023/03/04 08:50:36;;;;;;;;;;;;;;;20.84;36.83;100927.88;103639;1308;61262;-85
2023/03/04 08:53:02;;;;;;;;;;;;;;;20.85;36.91;100922.30;103675;1309;61387;-83
2023/03/04 08:55:27;;;;;;;;;;;;;;;20.85;36.90;100922.13;103658;1308;61326;-84
2023/03/04 08:57:53;;;;;;;;;;;;;;;20.85;36.88;100923.02;103724;1309;61270;-83
2023/03/04 09:00:20;;;;;;;;;;;;;;;20.85;36.91;100925.70;103850;1308;72495;-83
2023/03/04 09:02:45;;;;;;;;;;;;;;;20.85;36.98;100923.70;103616;1308;75592;-83
2023/03/04 09:05:11;;;;;;;;;;;;;;;20.85;37.01;100919.25;103906;1308;61337;-83
2023/03/04 09:07:36;;;;;;;;;;;;;;;20.85;37.21;100914.23;103648;1308;61924;-83
2023/03/04 09:10:02;;;;;;;;;;;;;;;20.85;37.10;100916.02;103671;1308;61310;-83
2023/03/04 09:12:28;;;;;;;;;;;;;;;20.86;36.91;100911.15;103643;1308;61476;-84
2023/03/04 09:14:54;;;;;;;;;;;;;;;20.86;37.01;100912.23;103684;1308;61342;-83
2023/03/04 09:17:19;;;;;;;;;;;;;;;20.86;37.14;100910.97;103675;1308;61372;-84
2023/03/04 09:20:09;;;;;;;;;;;;;;;20.86;37.01;100909.90;103617;1308;61308;-84
2023/03/04 09:22:35;;;;;;;;;;;;;;;20.86;36.94;100906.51;102924;1317;72463;-84
2023/03/04 09:25:00;;;;;;;;;;;;;;;20.86;37.03;100903.64;102943;1317;61458;-83
2023/03/04 09:27:26;;;;;;;;;;;;;;;20.87;37.00;100903.22;102894;1317;61340;-84
2023/03/04 09:29:52;;;;;;;;;;;;;;;20.87;37.02;100901.96;102888;1317;61259;-84
2023/03/04 09:32:18;;;;;;;;;;;;;;;20.87;37.04;100903.20;102891;1317;61297;-84
2023/03/04 09:34:43;;;;;;;;;;;;;;;20.87;37.05;100903.37;102952;1316;61328;-84
2023/03/04 09:37:09;;;;;;;;;;;;;;;20.87;37.03;100897.84;102920;1316;61329;-84
2023/03/04 09:39:34;;;;;;;;;;;;;;;20.87;37.03;100892.64;102919;1317;61403;-84
2023/03/04 09:42:01;;;;;;;;;;;;;;;20.88;37.12;100889.75;102917;1317;61403;-83
2023/03/04 09:44:31;;;;;;;;;;;;;;;20.88;37.07;100888.30;102929;1317;61321;-83
2023/03/04 09:47:01;;;;;;;;;;;;;;;20.88;37.09;100885.77;102897;1317;75158;-84
2023/03/04 09:49:27;;;;;;;;;;;;;;;20.89;37.05;100879.60;102891;1316;61401;-84
2023/03/04 09:52:06;;;;;;;;;;;;;;;20.89;37.05;100876.88;102764;1320;61362;-85
2023/03/04 09:54:52;;;;;;;;;;;;;;;20.90;37.06;100870.28;102746;1319;74474;-83
2023/03/04 09:57:20;;;;;;;;;;;;;;;20.90;37.05;100864.89;102331;1326;74476;-84
2023/03/04 09:59:59;;;;;;;;;;;;;;;20.90;37.04;100862.35;102410;1320;61337;-84
2023/03/04 10:02:33;;;;;;;;;;;;;;;20.91;36.97;100859.77;102630;1319;61352;-84
2023/03/04 10:04:59;;;;;;;;;;;;;;;20.92;37.09;100854.56;102645;1320;72831;-83
2023/03/04 10:07:26;;;;;;;;;;;;;;;20.92;37.13;100855.06;102703;1319;61376;-84
2023/03/04 10:09:55;;;;;;;;;;;;;;;20.93;37.08;100851.42;102682;1320;61383;-84
2023/03/04 10:12:23;;;;;;;;;;;;;;;20.94;37.12;100848.69;102718;1320;61496;-84
2023/03/04 10:14:52;;;;;;;;;;;;;;;20.95;37.01;100846.33;102702;1320;72997;-84
2023/03/04 10:17:21;;;;;;;;;;;;;;;20.95;37.22;100841.66;102687;1318;74444;-83
2023/03/04 10:19:47;;;;;;;;;;;;;;;20.95;37.01;100834.87;102728;1320;61196;-83
2023/03/04 10:22:28;;;;;;;;;;;;;;;20.96;37.15;100831.60;102767;1318;62894;-84
2023/03/04 10:24:55;;;;;;;;;;;;;;;20.96;37.09;100828.36;102737;1320;73664;-83
2023/03/04 10:27:22;;;;;;;;;;;;;;;20.97;37.08;100826.35;102631;1319;74555;-84
2023/03/04 10:29:48;;;;;;;;;;;;;;;20.96;37.09;100825.84;102934;1317;61886;-83
2023/03/04 10:32:15;;;;;;;;;;;;;;;20.96;37.12;100818.83;103037;1317;61345;-83
2023/03/04 10:34:41;;;;;;;;;;;;;;;20.97;37.11;100814.86;103368;1308;61336;-82
2023/03/04 10:37:07;;;;;;;;;;;;;;;20.97;37.08;100814.84;103650;1311;61358;-83
2023/03/04 10:39:40;;;;;;;;;;;;;;;20.97;37.10;100808.77;103608;1308;61298;-82
2023/03/04 10:42:14;;;;;;;;;;;;;;;20.97;37.18;100808.06;103811;1309;61223;-84
2023/03/04 10:44:41;;;;;;;;;;;;;;;20.97;37.05;100807.66;103758;1309;72545;-83
2023/03/04 10:47:08;;;;;;;;;;;;;;;20.97;37.10;100802.48;103621;1308;75376;-83
2023/03/04 10:49:36;;;;;;;;;;;;;;;20.97;37.09;100799.10;103841;1309;61332;-84
2023/03/04 10:52:02;;;;;;;;;;;;;;;20.98;37.13;100790.83;103469;1308;61374;-83
2023/03/04 10:54:36;;;;;;;;;;;;;;;20.98;37.07;100781.48;103835;1309;69363;-83
2023/03/04 10:57:02;;;;;;;;;;;;;;;20.98;37.13;100779.35;103832;1312;74425;-83
2023/03/04 10:59:38;;;;;;;;;;;;;;;20.99;37.13;100772.16;103883;1308;61266;-84
2023/03/04 11:02:13;;;;;;;;;;;;;;;20.99;37.10;100770.55;103851;1308;61147;-84
2023/03/04 11:04:39;;;;;;;;;;;;;;;20.99;37.22;100769.61;103850;1308;72675;-84
2023/03/04 11:07:09;;;;;;;;;;;;;;;20.99;37.10;100760.66;103655;1309;61806;-83
2023/03/04 11:09:35;;;;;;;;;;;;;;;21.00;37.11;100761.35;103687;1308;61158;-85
2023/03/04 11:12:00;;;;;;;;;;;;;;;21.00;37.22;100759.35;103700;1309;61426;-84
2023/03/04 11:14:29;;;;;;;;;;;;;;;21.00;37.10;100751.81;103451;1308;61314;-84
2023/03/04 11:16:57;;;;;;;;;;;;;;;21.00;37.17;100745.39;103846;1309;74387;-84
2023/03/04 11:19:23;;;;;;;;;;;;;;;21.00;37.17;100742.86;103486;1309;61209;-84
2023/03/04 11:21:49;;;;;;;;;;;;;;;21.01;37.13;100734.96;103655;1311;61151;-84
2023/03/04 11:24:20;;;;;;;;;;;;;;;21.01;37.30;100724.05;103624;1309;61393;-83
2023/03/04 11:26:51;;;;;;;;;;;;;;;21.01;37.26;100718.14;103672;1309;74266;-83
2023/03/04 11:29:21;;;;;;;;;;;;;;;21.01;37.21;100711.33;103876;1308;61166;-84
2023/03/04 11:31:53;;;;;;;;;;;;;;;21.01;37.24;100707.55;103618;1309;61285;-83
2023/03/04 11:34:29;;;;;;;;;;;;;;;21.02;37.21;100699.29;103708;1308;71945;-83
2023/03/04 11:36:57;;;;;;;;;;;;;;;21.02;37.31;100694.97;103665;1308;75392;-84
2023/03/04 11:39:30;;;;;;;;;;;;;;;21.02;37.21;100688.88;103870;1308;61299;-84
2023/03/04 11:41:57;;;;;;;;;;;;;;;21.03;37.23;100681.86;103799;1308;61234;-82
2023/03/04 11:44:24;;;;;;;;;;;;;;;21.02;37.22;100680.27;103647;1310;73954;-84
2023/03/04 11:46:49;;;;;;;;;;;;;;;21.03;37.31;100677.03;103625;1308;61323;-83
2023/03/04 11:49:35;;;;;;;;;;;;;;;21.03;37.34;100670.56;103793;1308;61450;-83
2023/03/04 11:52:09;;;;;;;;;;;;;;;21.03;37.24;100665.56;103252;1308;61159;-82
2023/03/04 11:54:39;;;;;;;;;;;;;;;21.03;37.26;100661.45;103643;1308;71465;-84
2023/03/04 11:57:23;;;;;;;;;;;;;;;21.03;37.26;100658.22;103572;1308;73974;-83
2023/03/04 11:59:55;;;;;;;;;;;;;;;21.03;37.49;100654.63;103806;1308;61192;-84
2023/03/04 12:02:26;;;;;;;;;;;;;;;21.04;37.23;100648.89;103876;1308;61214;-83
2023/03/04 12:05:04;;;;;;;;;;;;;;;21.03;37.33;100648.17;103850;1308;72469;-84
2023/03/04 12:07:44;;;;;;;;;;;;;;;21.04;37.32;100648.69;103643;1308;74795;-83
2023/03/04 12:10:09;;;;;;;;;;;;;;;21.04;37.28;100644.94;103600;1308;61221;-84
2023/03/04 12:12:42;;;;;;;;;;;;;;;21.04;37.24;100638.48;103891;1308;61265;-84
2023/03/04 12:15:14;;;;;;;;;;;;;;;21.04;37.26;100636.83;103861;1308;72592;-84
2023/03/04 12:18:01;;;;;;;;;;;;;;;21.05;37.13;100632.88;103850;1308;73948;-83
2023/03/04 12:20:29;;;;;;;;;;;;;;;21.04;37.26;100631.31;103858;1308;61181;-84
2023/03/04 12:22:59;;;;;;;;;;;;;;;21.04;37.21;100623.96;103834;1309;61406;-85
2023/03/04 12:25:45;;;;;;;;;;;;;;;21.05;37.32;100620.54;103883;1309;72817;-84